createdAt,value
2018-10-01T00:01:19.326Z,8.90
2018-10-01T00:03:51.011Z,8.90
2018-10-01T00:06:22.821Z,8.90
2018-10-01T00:08:54.709Z,8.80
2018-10-01T00:11:26.530Z,8.70
2018-10-01T00:13:58.282Z,8.80
2018-10-01T00:16:30.085Z,8.70
2018-10-01T00:19:01.892Z,8.70
2018-10-01T00:21:38.929Z,8.60
2018-10-01T00:24:10.769Z,8.50
2018-10-01T00:26:42.632Z,8.50
2018-10-01T00:29:14.425Z,8.40
2018-10-01T00:31:46.261Z,8.40
2018-10-01T00:34:18.103Z,8.40
2018-10-01T00:36:49.773Z,8.30
2018-10-01T00:39:21.713Z,8.30
2018-10-01T00:41:53.585Z,8.40
2018-10-01T00:44:25.420Z,8.50
2018-10-01T00:46:57.298Z,8.50
2018-10-01T00:49:29.217Z,8.50
2018-10-01T00:52:01.129Z,8.40
2018-10-01T00:54:32.946Z,8.30
2018-10-01T00:57:04.861Z,8.20
2018-10-01T00:59:36.880Z,8.20
2018-10-01T01:02:08.785Z,8.10
2018-10-01T01:04:40.590Z,8.10
2018-10-01T01:07:12.409Z,8.10
2018-10-01T01:09:44.401Z,8.10
2018-10-01T01:12:16.220Z,8.10
2018-10-01T01:14:48.015Z,8.20
2018-10-01T01:17:19.758Z,8.20
2018-10-01T01:19:51.463Z,8.30
2018-10-01T01:22:23.159Z,8.30
2018-10-01T01:24:54.982Z,8.30
2018-10-01T01:27:26.789Z,8.20
2018-10-01T01:29:58.500Z,8.20
2018-10-01T01:32:30.394Z,8.20
2018-10-01T01:35:02.129Z,8.20
2018-10-01T01:37:33.846Z,8.20
2018-10-01T01:40:06.395Z,8.10
2018-10-01T01:42:38.168Z,8.10
2018-10-01T01:45:10.057Z,8.00
2018-10-01T01:47:41.816Z,8.00
2018-10-01T01:50:13.599Z,7.90
2018-10-01T01:52:45.489Z,7.90
2018-10-01T01:55:17.237Z,7.80
2018-10-01T01:57:48.925Z,7.80
2018-10-01T02:00:20.718Z,7.90
2018-10-01T02:02:52.627Z,8.00
2018-10-01T02:05:24.422Z,8.10
2018-10-01T02:07:56.157Z,8.10
2018-10-01T02:10:28.073Z,8.00
2018-10-01T02:12:59.897Z,7.90
2018-10-01T02:15:31.593Z,7.80
2018-10-01T02:18:03.405Z,7.70
2018-10-01T02:20:35.018Z,7.60
2018-10-01T02:23:07.019Z,7.60
2018-10-01T02:25:38.744Z,7.50
2018-10-01T02:28:10.662Z,7.50
2018-10-01T02:30:42.589Z,7.50
2018-10-01T02:33:14.469Z,7.50
2018-10-01T02:35:46.262Z,7.50
2018-10-01T02:38:17.973Z,7.60
2018-10-01T02:40:49.697Z,7.60
2018-10-01T02:43:21.524Z,7.60
2018-10-01T02:45:53.370Z,7.80
2018-10-01T02:48:25.114Z,7.90
2018-10-01T02:50:57.026Z,7.90
2018-10-01T02:53:33.629Z,8.00
2018-10-01T02:56:05.542Z,8.10
2018-10-01T02:58:37.311Z,8.10
2018-10-01T03:01:09.561Z,8.00
2018-10-01T03:03:41.387Z,8.00
2018-10-01T03:06:13.381Z,8.00
2018-10-01T03:08:45.152Z,8.00
2018-10-01T03:11:16.898Z,7.90
2018-10-01T03:13:48.586Z,7.80
2018-10-01T03:16:20.301Z,7.80
2018-10-01T03:18:51.922Z,7.90
2018-10-01T03:21:23.778Z,8.00
2018-10-01T03:23:55.517Z,8.10
2018-10-01T03:26:27.346Z,8.10
2018-10-01T03:28:59.174Z,8.10
2018-10-01T03:31:30.986Z,8.10
2018-10-01T03:34:02.668Z,8.00
2018-10-01T03:36:34.462Z,7.90
2018-10-01T03:39:08.733Z,7.80
2018-10-01T03:41:40.987Z,7.80
2018-10-01T03:44:12.757Z,7.80
2018-10-01T03:46:44.569Z,7.70
2018-10-01T03:49:16.369Z,7.70
2018-10-01T03:51:48.410Z,7.70
2018-10-01T03:54:20.140Z,7.70
2018-10-01T03:56:52.026Z,7.80
2018-10-01T03:59:23.837Z,7.80
2018-10-01T04:01:55.651Z,7.80
2018-10-01T04:04:27.378Z,7.80
2018-10-01T04:06:59.202Z,7.80
2018-10-01T04:09:30.879Z,7.90
2018-10-01T04:12:02.685Z,8.00
2018-10-01T04:14:34.470Z,8.00
2018-10-01T04:17:06.211Z,8.10
2018-10-01T04:19:37.822Z,8.20
2018-10-01T04:22:09.644Z,8.30
2018-10-01T04:24:41.434Z,8.30
2018-10-01T04:27:13.443Z,8.40
2018-10-01T04:29:45.045Z,8.50
2018-10-01T04:32:16.870Z,8.50
2018-10-01T04:34:49.741Z,8.40
2018-10-01T04:37:21.497Z,8.40
2018-10-01T04:39:53.205Z,8.30
2018-10-01T04:42:25.050Z,8.20
2018-10-01T04:44:56.736Z,8.20
2018-10-01T04:47:28.625Z,8.20
2018-10-01T04:50:00.369Z,8.20
2018-10-01T04:52:32.162Z,8.20
2018-10-01T04:55:04.279Z,8.20
2018-10-01T04:57:36.223Z,8.20
2018-10-01T05:00:08.702Z,8.20
2018-10-01T05:02:40.507Z,8.20
2018-10-01T05:05:12.516Z,8.20
2018-10-01T05:07:44.369Z,8.30
2018-10-01T05:10:16.197Z,8.30
2018-10-01T05:12:47.961Z,8.40
2018-10-01T05:15:19.625Z,8.40
2018-10-01T05:17:51.368Z,8.50
2018-10-01T05:20:23.237Z,8.60
2018-10-01T05:22:54.909Z,8.70
2018-10-01T05:25:26.668Z,8.70
2018-10-01T05:27:58.526Z,8.80
2018-10-01T05:30:30.394Z,8.90
2018-10-01T05:33:02.348Z,9.00
2018-10-01T05:35:34.035Z,9.00
2018-10-01T05:38:05.923Z,9.10
2018-10-01T05:40:37.759Z,9.00
2018-10-01T05:43:09.492Z,9.00
2018-10-01T05:45:41.161Z,9.00
2018-10-01T05:48:13.032Z,8.90
2018-10-01T05:50:44.869Z,8.90
2018-10-01T05:53:16.524Z,8.90
2018-10-01T05:55:48.292Z,8.90
2018-10-01T05:58:20.774Z,8.90
2018-10-01T06:00:52.615Z,9.00
2018-10-01T06:03:24.314Z,9.00
2018-10-01T06:05:56.035Z,9.00
2018-10-01T06:08:27.790Z,9.10
2018-10-01T06:10:59.579Z,9.10
2018-10-01T06:13:31.319Z,9.10
2018-10-01T06:16:03.173Z,9.10
2018-10-01T06:18:35.026Z,9.10
2018-10-01T06:21:06.808Z,9.20
2018-10-01T06:23:38.467Z,9.10
2018-10-01T06:26:10.524Z,9.20
2018-10-01T06:28:42.303Z,9.20
2018-10-01T06:31:14.029Z,9.30
2018-10-01T06:33:45.805Z,9.30
2018-10-01T06:36:17.567Z,9.30
2018-10-01T06:38:49.329Z,9.30
2018-10-01T06:41:21.118Z,9.40
2018-10-01T06:43:52.957Z,9.50
2018-10-01T06:46:24.790Z,9.50
2018-10-01T06:48:56.566Z,9.60
2018-10-01T06:51:28.289Z,9.60
2018-10-01T06:53:59.993Z,9.60
2018-10-01T06:56:31.837Z,9.70
2018-10-01T06:59:03.694Z,9.70
2018-10-01T07:01:35.421Z,9.80
2018-10-01T07:04:07.171Z,9.80
2018-10-01T07:06:38.877Z,9.80
2018-10-01T07:09:11.891Z,9.80
2018-10-01T07:11:43.818Z,9.90
2018-10-01T07:14:15.598Z,9.90
2018-10-01T07:16:47.507Z,9.90
2018-10-01T07:19:19.206Z,10.00
2018-10-01T07:21:50.863Z,10.10
2018-10-01T07:24:22.611Z,9.90
2018-10-01T07:26:54.355Z,9.80
2018-10-01T07:29:26.361Z,9.70
2018-10-01T07:31:58.254Z,9.80
2018-10-01T07:34:30.062Z,9.90
2018-10-01T07:37:01.805Z,10.00
2018-10-01T07:39:33.699Z,10.10
2018-10-01T07:42:05.449Z,10.20
2018-10-01T07:44:37.384Z,10.30
2018-10-01T07:47:09.301Z,10.40
2018-10-01T07:49:41.058Z,10.50
2018-10-01T07:52:13.021Z,10.50
2018-10-01T07:54:44.954Z,10.50
2018-10-01T07:57:16.775Z,10.40
2018-10-01T07:59:48.739Z,10.50
2018-10-01T08:02:20.562Z,10.60
2018-10-01T08:04:52.416Z,10.60
2018-10-01T08:07:24.156Z,10.60
2018-10-01T08:09:55.818Z,10.70
2018-10-01T08:12:27.590Z,10.70
2018-10-01T08:14:59.464Z,10.80
2018-10-01T08:17:31.297Z,10.90
2018-10-01T08:20:03.174Z,10.90
2018-10-01T08:22:35.036Z,10.90
2018-10-01T08:25:07.118Z,11.00
2018-10-01T08:27:38.926Z,11.00
2018-10-01T08:30:10.725Z,11.10
2018-10-01T08:32:42.459Z,11.10
2018-10-01T08:35:14.420Z,11.20
2018-10-01T08:37:46.273Z,11.30
2018-10-01T08:40:18.241Z,11.30
2018-10-01T08:45:32.467Z,11.60
2018-10-01T08:48:04.494Z,11.70
2018-10-01T08:51:40.082Z,11.70
2018-10-01T08:54:19.947Z,11.60
2018-10-01T08:56:51.673Z,11.60
2018-10-01T08:59:23.563Z,11.60
2018-10-01T09:01:55.060Z,11.70
2018-10-01T09:04:26.550Z,11.80
2018-10-01T09:06:58.473Z,11.80
2018-10-01T09:09:30.360Z,11.80
2018-10-01T09:12:02.196Z,11.90
2018-10-01T09:14:33.901Z,11.90
2018-10-01T09:17:05.836Z,12.10
2018-10-01T09:19:37.704Z,12.20
2018-10-01T09:22:09.468Z,12.30
2018-10-01T09:24:41.428Z,12.40
2018-10-01T09:27:13.358Z,12.30
2018-10-01T09:29:45.109Z,12.40
2018-10-01T09:32:16.878Z,12.60
2018-10-01T09:34:48.729Z,12.80
2018-10-01T09:37:20.528Z,13.00
2018-10-01T09:39:52.271Z,13.10
2018-10-01T09:42:23.929Z,13.30
2018-10-01T09:44:55.772Z,13.40
2018-10-01T09:47:27.449Z,13.80
2018-10-01T09:49:59.344Z,14.10
2018-10-01T09:52:31.192Z,14.20
2018-10-01T09:55:02.925Z,14.10
2018-10-01T09:57:34.841Z,13.90
2018-10-01T10:00:07.036Z,13.70
2018-10-01T10:02:38.978Z,13.60
2018-10-01T10:05:10.636Z,13.50
2018-10-01T10:07:42.452Z,13.40
2018-10-01T10:10:14.287Z,13.40
2018-10-01T10:12:46.043Z,13.30
2018-10-01T10:15:18.011Z,13.20
2018-10-01T10:17:49.687Z,13.10
2018-10-01T10:20:21.572Z,13.10
2018-10-01T10:22:53.387Z,13.00
2018-10-01T10:25:25.054Z,13.00
2018-10-01T10:27:56.959Z,12.90
2018-10-01T10:30:28.870Z,13.00
2018-10-01T10:33:00.633Z,13.00
2018-10-01T10:35:32.428Z,12.90
2018-10-01T10:38:04.340Z,12.90
2018-10-01T10:40:36.118Z,12.90
2018-10-01T10:43:08.102Z,12.90
2018-10-01T10:45:39.987Z,12.90
2018-10-01T10:48:11.875Z,12.90
2018-10-01T10:50:43.658Z,12.90
2018-10-01T10:53:15.405Z,13.00
2018-10-01T10:55:47.094Z,13.00
2018-10-01T10:58:18.963Z,12.90
2018-10-01T11:00:50.825Z,13.00
2018-10-01T11:03:22.560Z,13.00
2018-10-01T11:05:54.218Z,13.00
2018-10-01T11:08:26.133Z,13.10
2018-10-01T11:10:57.954Z,13.30
2018-10-01T11:13:29.692Z,13.40
2018-10-01T11:16:01.590Z,13.40
2018-10-01T11:18:33.445Z,13.50
2018-10-01T11:21:05.355Z,13.50
2018-10-01T11:23:37.139Z,13.50
2018-10-01T11:26:09.037Z,13.60
2018-10-01T11:28:40.921Z,13.60
2018-10-01T11:31:12.830Z,13.50
2018-10-01T11:33:44.610Z,13.50
2018-10-01T11:36:16.363Z,13.40
2018-10-01T11:38:48.196Z,13.40
2018-10-01T11:41:19.867Z,13.30
2018-10-01T11:43:51.636Z,13.30
2018-10-01T11:46:23.478Z,13.30
2018-10-01T11:48:55.243Z,13.20
2018-10-01T11:51:26.948Z,13.20
2018-10-01T11:53:58.669Z,13.30
2018-10-01T11:56:30.336Z,13.40
2018-10-01T11:59:02.318Z,13.40
2018-10-01T12:01:34.349Z,13.40
2018-10-01T12:04:06.344Z,13.30
2018-10-01T12:06:37.965Z,13.30
2018-10-01T12:09:12.258Z,13.20
2018-10-01T12:11:43.942Z,13.10
2018-10-01T12:14:15.712Z,13.10
2018-10-01T12:16:47.560Z,13.00
2018-10-01T12:19:19.346Z,13.00
2018-10-01T12:21:51.079Z,13.00
2018-10-01T12:24:22.940Z,12.90
2018-10-01T12:26:54.663Z,12.80
2018-10-01T12:29:26.365Z,12.70
2018-10-01T12:31:58.204Z,12.60
2018-10-01T12:34:30.179Z,12.50
2018-10-01T12:37:01.965Z,12.50
2018-10-01T12:39:33.760Z,12.40
2018-10-01T12:42:05.686Z,12.30
2018-10-01T12:44:37.412Z,12.20
2018-10-01T12:47:09.197Z,12.30
2018-10-01T12:49:41.067Z,12.30
2018-10-01T12:52:12.806Z,12.40
2018-10-01T12:54:44.573Z,12.30
2018-10-01T12:57:16.541Z,12.30
2018-10-01T12:59:48.268Z,12.30
2018-10-01T13:02:19.964Z,12.30
2018-10-01T13:04:51.732Z,12.20
2018-10-01T13:07:23.470Z,12.20
2018-10-01T13:09:55.338Z,12.10
2018-10-01T13:12:48.299Z,11.90
2018-10-01T13:15:20.049Z,11.80
2018-10-01T13:17:51.945Z,11.70
2018-10-01T13:20:23.876Z,11.80
2018-10-01T13:22:55.718Z,12.00
2018-10-01T13:25:27.580Z,12.40
2018-10-01T13:27:59.344Z,12.90
2018-10-01T13:30:31.324Z,13.40
2018-10-01T13:33:03.223Z,13.70
2018-10-01T13:35:35.048Z,13.70
2018-10-01T13:38:06.918Z,13.60
2018-10-01T13:40:38.666Z,13.50
2018-10-01T13:43:10.531Z,13.30
2018-10-01T13:45:42.389Z,13.20
2018-10-01T13:48:14.280Z,13.00
2018-10-01T13:50:46.091Z,13.00
2018-10-01T13:53:17.747Z,12.90
2018-10-01T13:55:49.597Z,12.90
2018-10-01T13:58:21.310Z,13.00
2018-10-01T14:00:52.993Z,12.90
2018-10-01T14:03:24.810Z,12.90
2018-10-01T14:05:56.647Z,13.00
2018-10-01T14:08:28.531Z,13.00
2018-10-01T14:11:00.388Z,13.00
2018-10-01T14:13:32.371Z,13.00
2018-10-01T14:16:04.115Z,13.10
2018-10-01T14:18:35.857Z,13.10
2018-10-01T14:21:07.798Z,13.10
2018-10-01T14:23:39.558Z,13.20
2018-10-01T14:26:11.456Z,13.20
2018-10-01T14:28:43.281Z,13.20
2018-10-01T14:31:15.055Z,13.30
2018-10-01T14:33:46.813Z,13.30
2018-10-01T14:36:18.765Z,13.40
2018-10-01T14:38:50.529Z,13.60
2018-10-01T14:41:22.291Z,13.70
2018-10-01T14:43:53.972Z,14.50
2018-10-01T14:46:25.937Z,13.90
2018-10-01T14:48:57.723Z,13.90
2018-10-01T14:51:29.459Z,13.80
2018-10-01T14:54:01.453Z,13.80
2018-10-01T14:56:33.152Z,13.70
2018-10-01T14:59:04.945Z,13.70
2018-10-01T15:01:36.869Z,13.70
2018-10-01T15:04:08.730Z,13.70
2018-10-01T15:06:40.491Z,13.70
2018-10-01T15:09:12.970Z,13.70
2018-10-01T15:11:44.755Z,13.70
2018-10-01T15:14:16.589Z,13.70
2018-10-01T15:16:48.262Z,13.70
2018-10-01T15:19:20.141Z,13.60
2018-10-01T15:21:52.073Z,13.50
2018-10-01T15:24:23.867Z,13.50
2018-10-01T15:26:55.813Z,13.50
2018-10-01T15:29:27.684Z,13.50
2018-10-01T15:31:59.437Z,13.50
2018-10-01T15:34:31.268Z,13.50
2018-10-01T15:37:02.946Z,13.50
2018-10-01T15:39:34.761Z,13.60
2018-10-01T15:42:06.729Z,13.80
2018-10-01T15:44:38.616Z,13.80
2018-10-01T15:47:10.280Z,13.90
2018-10-01T15:49:42.040Z,13.90
2018-10-01T15:52:13.721Z,13.90
2018-10-01T15:54:45.876Z,13.90
2018-10-01T15:57:17.534Z,13.90
2018-10-01T15:59:49.369Z,13.80
2018-10-01T16:02:21.266Z,13.70
2018-10-01T16:04:53.009Z,13.70
2018-10-01T16:07:24.778Z,13.70
2018-10-01T16:09:56.829Z,13.70
2018-10-01T16:12:28.473Z,13.60
2018-10-01T16:15:00.253Z,13.60
2018-10-01T16:17:32.228Z,13.50
2018-10-01T16:20:03.984Z,13.50
2018-10-01T16:22:35.729Z,13.50
2018-10-01T16:25:08.041Z,13.40
2018-10-01T16:27:39.957Z,13.40
2018-10-01T16:30:11.745Z,13.30
2018-10-01T16:32:43.383Z,13.30
2018-10-01T16:35:15.434Z,13.20
2018-10-01T16:37:47.217Z,13.20
2018-10-01T16:40:18.957Z,13.10
2018-10-01T16:42:50.708Z,13.10
2018-10-01T16:45:22.464Z,13.00
2018-10-01T16:47:54.142Z,13.00
2018-10-01T16:50:25.910Z,13.00
2018-10-01T16:52:57.740Z,12.90
2018-10-01T16:55:29.405Z,12.90
2018-10-01T16:58:01.203Z,12.90
2018-10-01T17:00:33.237Z,12.90
2018-10-01T17:03:04.921Z,12.90
2018-10-01T17:05:36.559Z,12.90
2018-10-01T17:08:08.319Z,12.90
2018-10-01T17:10:40.181Z,12.80
2018-10-01T17:13:12.037Z,12.80
2018-10-01T17:15:43.913Z,12.80
2018-10-01T17:18:15.646Z,12.70
2018-10-01T17:20:47.399Z,12.70
2018-10-01T17:23:19.065Z,12.70
2018-10-01T17:25:50.829Z,12.70
2018-10-01T17:28:22.267Z,12.60
2018-10-01T17:30:54.046Z,12.60
2018-10-01T17:33:25.989Z,12.50
2018-10-01T17:35:57.755Z,12.40
2018-10-01T17:38:29.589Z,12.40
2018-10-01T17:41:01.468Z,12.30
2018-10-01T17:43:33.231Z,12.30
2018-10-01T17:46:04.932Z,12.20
2018-10-01T17:48:36.747Z,12.20
2018-10-01T17:51:08.641Z,12.10
2018-10-01T17:53:40.480Z,12.00
2018-10-01T17:56:12.147Z,12.00
2018-10-01T17:58:44.090Z,11.90
2018-10-01T18:01:15.768Z,11.80
2018-10-01T18:03:47.529Z,11.80
2018-10-01T18:06:19.401Z,11.70
2018-10-01T18:08:51.257Z,11.70
2018-10-01T18:11:23.227Z,11.60
2018-10-01T18:13:55.074Z,11.60
2018-10-01T18:16:26.906Z,11.60
2018-10-01T18:18:58.779Z,11.60
2018-10-01T18:21:30.393Z,11.50
2018-10-01T18:24:02.263Z,11.50
2018-10-01T18:26:33.986Z,11.50
2018-10-01T18:29:05.963Z,11.50
2018-10-01T18:31:37.770Z,11.50
2018-10-01T18:34:09.663Z,11.40
2018-10-01T18:36:41.413Z,11.20
2018-10-01T18:39:23.587Z,11.00
2018-10-01T18:41:55.289Z,10.80
2018-10-01T18:44:27.133Z,10.70
2018-10-01T18:46:58.984Z,10.50
2018-10-01T18:49:30.770Z,10.40
2018-10-01T18:52:02.734Z,10.40
2018-10-01T18:54:34.475Z,10.20
2018-10-01T18:57:06.345Z,10.10
2018-10-01T18:59:38.095Z,10.00
2018-10-01T19:02:09.953Z,9.90
2018-10-01T19:04:41.622Z,9.80
2018-10-01T19:07:13.490Z,9.70
2018-10-01T19:09:45.230Z,9.60
2018-10-01T19:12:17.109Z,9.70
2018-10-01T19:14:48.993Z,9.80
2018-10-01T19:17:20.930Z,9.70
2018-10-01T19:19:52.803Z,9.60
2018-10-01T19:22:24.542Z,9.50
2018-10-01T19:24:56.315Z,9.50
2018-10-01T19:27:28.048Z,9.50
2018-10-01T19:29:59.928Z,9.50
2018-10-01T19:32:31.759Z,9.40
2018-10-01T19:35:03.884Z,9.30
2018-10-01T19:37:35.695Z,9.20
2018-10-01T19:40:07.481Z,9.20
2018-10-01T19:42:39.405Z,9.20
2018-10-01T19:45:11.415Z,9.20
2018-10-01T19:47:43.171Z,9.20
2018-10-01T19:50:15.019Z,9.20
2018-10-01T19:52:46.964Z,9.20
2018-10-01T19:55:18.827Z,9.20
2018-10-01T19:57:50.487Z,9.10
2018-10-01T20:00:22.514Z,9.20
2018-10-01T20:02:54.243Z,9.30
2018-10-01T20:05:26.198Z,9.40
2018-10-01T20:07:58.133Z,9.50
2018-10-01T20:10:29.922Z,9.60
2018-10-01T20:13:01.791Z,9.80
2018-10-01T20:15:33.626Z,9.80
2018-10-01T20:18:05.527Z,9.90
2018-10-01T20:20:37.341Z,9.90
2018-10-01T20:23:09.253Z,9.90
2018-10-01T20:25:41.034Z,9.90
2018-10-01T20:28:12.931Z,9.90
2018-10-01T20:30:44.748Z,9.90
2018-10-01T20:33:16.572Z,9.80
2018-10-01T20:35:48.482Z,9.80
2018-10-01T20:38:20.435Z,9.80
2018-10-01T20:40:52.239Z,9.90
2018-10-01T20:43:25.214Z,9.90
2018-10-01T20:45:57.058Z,10.00
2018-10-01T20:48:28.763Z,10.00
2018-10-01T20:51:00.606Z,10.00
2018-10-01T20:53:32.407Z,10.00
2018-10-01T20:56:04.184Z,10.00
2018-10-01T20:58:36.021Z,10.00
2018-10-01T21:01:07.829Z,9.90
2018-10-01T21:03:39.472Z,9.90
2018-10-01T21:06:11.341Z,9.90
2018-10-01T21:08:43.267Z,9.90
2018-10-01T21:11:14.982Z,9.90
2018-10-01T21:13:46.689Z,9.90
2018-10-01T21:16:18.582Z,9.90
2018-10-01T21:18:50.283Z,9.90
2018-10-01T21:21:22.031Z,9.80
2018-10-01T21:23:53.847Z,9.90
2018-10-01T21:26:25.537Z,9.90
2018-10-01T21:28:57.230Z,9.90
2018-10-01T21:31:29.246Z,9.90
2018-10-01T21:34:01.183Z,9.90
2018-10-01T21:36:32.878Z,9.90
2018-10-01T21:39:05.368Z,9.90
2018-10-01T21:41:37.134Z,9.90
2018-10-01T21:44:09.019Z,9.90
2018-10-01T21:46:40.721Z,9.90
2018-10-01T21:49:12.448Z,9.90
2018-10-01T21:51:44.271Z,9.80
2018-10-01T21:54:15.964Z,9.70
2018-10-01T21:56:47.753Z,9.60
2018-10-01T21:59:19.569Z,9.70
2018-10-01T22:01:55.506Z,9.60
2018-10-01T22:04:27.430Z,9.60
2018-10-01T22:06:59.315Z,9.60
2018-10-01T22:09:31.090Z,9.70
2018-10-01T22:12:02.842Z,9.70
2018-10-01T22:14:34.989Z,9.80
2018-10-01T22:17:06.733Z,9.80
2018-10-01T22:19:38.369Z,9.80
2018-10-01T22:22:10.517Z,9.80
2018-10-01T22:24:42.306Z,9.80
2018-10-01T22:27:14.221Z,9.80
2018-10-01T22:29:45.912Z,9.80
2018-10-01T22:32:17.913Z,9.80
2018-10-01T22:34:49.835Z,9.80
2018-10-01T22:37:21.645Z,9.90
2018-10-01T22:39:53.353Z,9.80
2018-10-01T22:42:25.049Z,9.80
2018-10-01T22:44:56.679Z,9.80
2018-10-01T22:47:28.499Z,9.80
2018-10-01T22:50:00.194Z,9.80
2018-10-01T22:52:31.998Z,9.80
2018-10-01T22:55:03.805Z,9.80
2018-10-01T22:57:35.618Z,9.80
2018-10-01T23:00:07.446Z,9.80
2018-10-01T23:02:39.358Z,9.90
2018-10-01T23:05:11.191Z,9.90
2018-10-01T23:07:42.966Z,9.90
2018-10-01T23:10:14.657Z,9.90
2018-10-01T23:12:46.499Z,9.80
2018-10-01T23:15:18.198Z,9.80
2018-10-01T23:17:49.981Z,9.80
2018-10-01T23:20:21.870Z,9.70
2018-10-01T23:22:53.654Z,9.70
2018-10-01T23:25:25.495Z,9.70
2018-10-01T23:27:57.220Z,9.70
2018-10-01T23:30:28.855Z,9.70
2018-10-01T23:33:00.672Z,9.60
2018-10-01T23:35:32.498Z,9.60
2018-10-01T23:38:04.494Z,9.60
2018-10-01T23:40:36.310Z,9.50
2018-10-01T23:43:08.233Z,9.50
2018-10-01T23:45:40.108Z,9.40
2018-10-01T23:48:11.826Z,9.40
2018-10-01T23:50:43.518Z,9.40
2018-10-01T23:53:15.357Z,9.40
2018-10-01T23:55:47.053Z,9.40
2018-10-01T23:58:18.875Z,9.40
